sensor_id;sensor_type;location;lat;lon;timestamp;P1;durP1;ratioP1;P2;durP2;ratioP2
6424;SDS011;12193;42.642;23.384;2023-03-23T00:02:22;173.33;;;33.30;;
6424;SDS011;12193;42.642;23.384;2023-03-23T00:04:52;201.70;;;32.40;;
6424;SDS011;12193;42.642;23.384;2023-03-23T00:07:23;75.10;;;29.13;;
6424;SDS011;12193;42.642;23.384;2023-03-23T00:09:53;47.43;;;23.70;;
6424;SDS011;12193;42.642;23.384;2023-03-23T00:12:24;51.53;;;26.07;;
6424;SDS011;12193;42.642;23.384;2023-03-23T00:15:01;44.73;;;22.57;;
6424;SDS011;12193;42.642;23.384;2023-03-23T00:17:32;35.77;;;19.40;;
6424;SDS011;12193;42.642;23.384;2023-03-23T00:20:01;29.60;;;16.97;;
6424;SDS011;12193;42.642;23.384;2023-03-23T00:22:34;39.27;;;20.87;;
6424;SDS011;12193;42.642;23.384;2023-03-23T00:25:04;39.50;;;20.80;;
6424;SDS011;12193;42.642;23.384;2023-03-23T00:27:34;39.13;;;20.33;;
6424;SDS011;12193;42.642;23.384;2023-03-23T00:30:07;43.30;;;22.73;;
6424;SDS011;12193;42.642;23.384;2023-03-23T00:32:37;27.67;;;15.37;;
6424;SDS011;12193;42.642;23.384;2023-03-23T00:35:06;24.83;;;14.37;;
6424;SDS011;12193;42.642;23.384;2023-03-23T00:37:36;29.70;;;14.97;;
6424;SDS011;12193;42.642;23.384;2023-03-23T00:40:06;29.53;;;14.60;;
6424;SDS011;12193;42.642;23.384;2023-03-23T00:42:36;25.07;;;14.20;;
6424;SDS011;12193;42.642;23.384;2023-03-23T00:45:09;24.40;;;13.93;;
6424;SDS011;12193;42.642;23.384;2023-03-23T00:47:39;28.63;;;14.20;;
6424;SDS011;12193;42.642;23.384;2023-03-23T00:50:12;25.07;;;13.87;;
6424;SDS011;12193;42.642;23.384;2023-03-23T00:52:43;20.13;;;11.70;;
6424;SDS011;12193;42.642;23.384;2023-03-23T00:55:12;22.00;;;12.27;;
6424;SDS011;12193;42.642;23.384;2023-03-23T00:57:41;24.30;;;12.97;;
6424;SDS011;12193;42.642;23.384;2023-03-23T01:00:14;20.93;;;11.87;;
6424;SDS011;12193;42.642;23.384;2023-03-23T01:02:44;20.23;;;11.97;;
6424;SDS011;12193;42.642;23.384;2023-03-23T01:05:13;18.53;;;10.07;;
6424;SDS011;12193;42.642;23.384;2023-03-23T04:08:25;26.23;;;13.20;;
6424;SDS011;12193;42.642;23.384;2023-03-23T04:10:55;19.90;;;12.07;;
6424;SDS011;12193;42.642;23.384;2023-03-23T04:13:25;25.07;;;12.97;;
6424;SDS011;12193;42.642;23.384;2023-03-23T04:15:54;21.17;;;11.67;;
6424;SDS011;12193;42.642;23.384;2023-03-23T04:18:23;23.80;;;11.83;;
6424;SDS011;12193;42.642;23.384;2023-03-23T04:20:52;22.10;;;11.40;;
6424;SDS011;12193;42.642;23.384;2023-03-23T04:23:27;22.53;;;11.67;;
6424;SDS011;12193;42.642;23.384;2023-03-23T04:25:59;27.13;;;12.80;;
6424;SDS011;12193;42.642;23.384;2023-03-23T04:28:29;23.90;;;12.80;;
6424;SDS011;12193;42.642;23.384;2023-03-23T04:30:59;22.93;;;12.00;;
6424;SDS011;12193;42.642;23.384;2023-03-23T04:33:29;23.57;;;12.20;;
6424;SDS011;12193;42.642;23.384;2023-03-23T04:35:59;25.13;;;12.87;;
6424;SDS011;12193;42.642;23.384;2023-03-23T04:38:34;26.70;;;13.93;;
6424;SDS011;12193;42.642;23.384;2023-03-23T04:41:04;25.50;;;13.60;;
6424;SDS011;12193;42.642;23.384;2023-03-23T04:43:33;25.23;;;13.43;;
6424;SDS011;12193;42.642;23.384;2023-03-23T04:46:07;26.07;;;14.20;;
6424;SDS011;12193;42.642;23.384;2023-03-23T04:48:37;27.57;;;13.80;;
6424;SDS011;12193;42.642;23.384;2023-03-23T04:51:06;27.23;;;14.43;;
6424;SDS011;12193;42.642;23.384;2023-03-23T04:53:41;28.17;;;16.03;;
6424;SDS011;12193;42.642;23.384;2023-03-23T04:56:10;25.53;;;13.73;;
6424;SDS011;12193;42.642;23.384;2023-03-23T04:58:40;26.60;;;14.27;;
6424;SDS011;12193;42.642;23.384;2023-03-23T05:01:09;24.70;;;13.50;;
6424;SDS011;12193;42.642;23.384;2023-03-23T05:03:39;27.73;;;13.20;;
6424;SDS011;12193;42.642;23.384;2023-03-23T05:06:09;25.13;;;12.87;;
6424;SDS011;12193;42.642;23.384;2023-03-23T05:08:42;21.87;;;12.67;;
6424;SDS011;12193;42.642;23.384;2023-03-23T05:11:12;23.13;;;12.23;;
6424;SDS011;12193;42.642;23.384;2023-03-23T05:13:41;22.63;;;12.60;;
6424;SDS011;12193;42.642;23.384;2023-03-23T05:16:10;23.37;;;13.03;;
6424;SDS011;12193;42.642;23.384;2023-03-23T05:18:40;22.37;;;12.60;;
6424;SDS011;12193;42.642;23.384;2023-03-23T05:21:09;21.03;;;12.03;;
6424;SDS011;12193;42.642;23.384;2023-03-23T05:23:42;19.47;;;10.93;;
6424;SDS011;12193;42.642;23.384;2023-03-23T05:26:11;21.63;;;10.43;;
6424;SDS011;12193;42.642;23.384;2023-03-23T05:28:41;17.73;;;10.93;;
6424;SDS011;12193;42.642;23.384;2023-03-23T05:31:11;16.70;;;10.07;;
6424;SDS011;12193;42.642;23.384;2023-03-23T05:33:40;19.90;;;11.57;;
6424;SDS011;12193;42.642;23.384;2023-03-23T05:36:10;22.37;;;13.00;;
6424;SDS011;12193;42.642;23.384;2023-03-23T05:38:43;21.87;;;12.37;;
6424;SDS011;12193;42.642;23.384;2023-03-23T05:41:13;22.10;;;11.97;;
6424;SDS011;12193;42.642;23.384;2023-03-23T05:43:42;21.97;;;12.30;;
6424;SDS011;12193;42.642;23.384;2023-03-23T05:46:12;28.70;;;13.50;;
6424;SDS011;12193;42.642;23.384;2023-03-23T05:48:41;31.17;;;15.23;;
6424;SDS011;12193;42.642;23.384;2023-03-23T05:51:10;28.47;;;14.83;;
6424;SDS011;12193;42.642;23.384;2023-03-23T05:53:40;29.07;;;15.17;;
6424;SDS011;12193;42.642;23.384;2023-03-23T05:56:13;35.07;;;17.00;;
6424;SDS011;12193;42.642;23.384;2023-03-23T05:58:42;32.57;;;17.33;;
6424;SDS011;12193;42.642;23.384;2023-03-23T06:01:11;34.47;;;18.20;;
6424;SDS011;12193;42.642;23.384;2023-03-23T06:03:41;33.70;;;18.30;;
6424;SDS011;12193;42.642;23.384;2023-03-23T06:06:11;32.37;;;17.30;;
6424;SDS011;12193;42.642;23.384;2023-03-23T06:08:43;31.43;;;17.93;;
6424;SDS011;12193;42.642;23.384;2023-03-23T06:11:14;30.67;;;15.60;;
6424;SDS011;12193;42.642;23.384;2023-03-23T06:13:44;25.50;;;13.97;;
6424;SDS011;12193;42.642;23.384;2023-03-23T06:16:14;18.87;;;10.97;;
6424;SDS011;12193;42.642;23.384;2023-03-23T06:18:44;19.17;;;11.37;;
6424;SDS011;12193;42.642;23.384;2023-03-23T06:21:14;21.80;;;11.80;;
6424;SDS011;12193;42.642;23.384;2023-03-23T06:23:46;17.47;;;10.50;;
6424;SDS011;12193;42.642;23.384;2023-03-23T06:26:17;17.53;;;10.83;;
6424;SDS011;12193;42.642;23.384;2023-03-23T06:28:49;20.30;;;11.13;;
6424;SDS011;12193;42.642;23.384;2023-03-23T06:31:18;16.53;;;10.67;;
6424;SDS011;12193;42.642;23.384;2023-03-23T06:33:48;19.43;;;11.50;;
6424;SDS011;12193;42.642;23.384;2023-03-23T06:36:17;18.17;;;11.03;;
6424;SDS011;12193;42.642;23.384;2023-03-23T06:38:51;22.43;;;11.97;;
6424;SDS011;12193;42.642;23.384;2023-03-23T06:41:21;19.43;;;11.20;;
6424;SDS011;12193;42.642;23.384;2023-03-23T06:43:50;19.63;;;11.17;;
6424;SDS011;12193;42.642;23.384;2023-03-23T06:46:19;17.30;;;10.67;;
6424;SDS011;12193;42.642;23.384;2023-03-23T06:48:49;19.17;;;11.53;;
6424;SDS011;12193;42.642;23.384;2023-03-23T06:51:18;16.27;;;11.30;;
6424;SDS011;12193;42.642;23.384;2023-03-23T06:53:48;18.53;;;10.63;;
6424;SDS011;12193;42.642;23.384;2023-03-23T06:56:20;20.37;;;10.17;;
6424;SDS011;12193;42.642;23.384;2023-03-23T06:58:49;17.17;;;10.00;;
6424;SDS011;12193;42.642;23.384;2023-03-23T07:01:18;16.17;;;10.30;;
6424;SDS011;12193;42.642;23.384;2023-03-23T07:03:48;17.73;;;10.80;;
6424;SDS011;12193;42.642;23.384;2023-03-23T07:06:17;15.37;;;10.30;;
6424;SDS011;12193;42.642;23.384;2023-03-23T07:08:47;21.13;;;12.00;;
6424;SDS011;12193;42.642;23.384;2023-03-23T07:11:19;23.80;;;12.87;;
6424;SDS011;12193;42.642;23.384;2023-03-23T07:13:49;23.30;;;13.00;;
6424;SDS011;12193;42.642;23.384;2023-03-23T07:16:18;25.53;;;14.57;;
6424;SDS011;12193;42.642;23.384;2023-03-23T07:18:47;24.33;;;14.77;;
6424;SDS011;12193;42.642;23.384;2023-03-23T07:21:17;28.07;;;16.63;;
6424;SDS011;12193;42.642;23.384;2023-03-23T07:23:46;30.23;;;17.07;;
6424;SDS011;12193;42.642;23.384;2023-03-23T07:26:19;31.23;;;16.50;;
6424;SDS011;12193;42.642;23.384;2023-03-23T07:28:49;32.80;;;17.70;;
6424;SDS011;12193;42.642;23.384;2023-03-23T07:31:18;31.17;;;18.07;;
6424;SDS011;12193;42.642;23.384;2023-03-23T07:33:47;31.30;;;18.73;;
6424;SDS011;12193;42.642;23.384;2023-03-23T07:36:17;32.97;;;18.90;;
6424;SDS011;12193;42.642;23.384;2023-03-23T07:38:46;30.20;;;17.53;;
6424;SDS011;12193;42.642;23.384;2023-03-23T07:41:16;32.17;;;19.13;;
6424;SDS011;12193;42.642;23.384;2023-03-23T07:43:48;30.58;;;20.52;;
6424;SDS011;12193;42.642;23.384;2023-03-23T07:46:17;31.03;;;18.83;;
6424;SDS011;12193;42.642;23.384;2023-03-23T07:48:46;32.77;;;17.87;;
6424;SDS011;12193;42.642;23.384;2023-03-23T07:51:17;29.53;;;18.60;;
6424;SDS011;12193;42.642;23.384;2023-03-23T07:53:47;30.80;;;17.27;;
6424;SDS011;12193;42.642;23.384;2023-03-23T07:56:19;31.27;;;17.47;;
6424;SDS011;12193;42.642;23.384;2023-03-23T07:58:49;29.57;;;18.07;;
6424;SDS011;12193;42.642;23.384;2023-03-23T08:01:18;30.77;;;18.77;;
6424;SDS011;12193;42.642;23.384;2023-03-23T08:03:49;26.67;;;16.90;;
6424;SDS011;12193;42.642;23.384;2023-03-23T08:06:20;31.47;;;16.90;;
6424;SDS011;12193;42.642;23.384;2023-03-23T08:08:49;29.10;;;16.47;;
6424;SDS011;12193;42.642;23.384;2023-03-23T08:11:23;29.50;;;16.57;;
6424;SDS011;12193;42.642;23.384;2023-03-23T08:13:52;29.63;;;16.27;;
6424;SDS011;12193;42.642;23.384;2023-03-23T08:16:22;29.73;;;17.30;;
6424;SDS011;12193;42.642;23.384;2023-03-23T08:18:51;27.20;;;16.27;;
6424;SDS011;12193;42.642;23.384;2023-03-23T08:21:21;31.00;;;16.17;;
6424;SDS011;12193;42.642;23.384;2023-03-23T08:23:52;27.10;;;16.20;;
6424;SDS011;12193;42.642;23.384;2023-03-23T08:26:24;33.37;;;16.87;;
6424;SDS011;12193;42.642;23.384;2023-03-23T08:28:53;26.97;;;16.47;;
6424;SDS011;12193;42.642;23.384;2023-03-23T08:31:23;24.30;;;15.53;;
6424;SDS011;12193;42.642;23.384;2023-03-23T08:33:53;28.53;;;15.03;;
6424;SDS011;12193;42.642;23.384;2023-03-23T08:36:23;23.87;;;14.47;;
6424;SDS011;12193;42.642;23.384;2023-03-23T08:38:53;22.43;;;13.83;;
6424;SDS011;12193;42.642;23.384;2023-03-23T08:41:25;21.00;;;13.17;;
6424;SDS011;12193;42.642;23.384;2023-03-23T08:43:55;21.30;;;13.57;;
6424;SDS011;12193;42.642;23.384;2023-03-23T08:46:24;22.90;;;12.90;;
6424;SDS011;12193;42.642;23.384;2023-03-23T08:48:54;17.03;;;10.53;;
6424;SDS011;12193;42.642;23.384;2023-03-23T08:51:24;18.07;;;10.07;;
6424;SDS011;12193;42.642;23.384;2023-03-23T08:53:53;17.20;;;10.43;;
6424;SDS011;12193;42.642;23.384;2023-03-23T08:56:25;14.20;;;8.90;;
6424;SDS011;12193;42.642;23.384;2023-03-23T08:58:55;14.27;;;9.53;;
6424;SDS011;12193;42.642;23.384;2023-03-23T09:01:25;14.73;;;8.73;;
6424;SDS011;12193;42.642;23.384;2023-03-23T09:03:55;13.90;;;8.70;;
6424;SDS011;12193;42.642;23.384;2023-03-23T09:06:25;13.30;;;7.33;;
6424;SDS011;12193;42.642;23.384;2023-03-23T09:08:55;10.03;;;7.13;;
6424;SDS011;12193;42.642;23.384;2023-03-23T09:11:29;10.77;;;7.07;;
6424;SDS011;12193;42.642;23.384;2023-03-23T09:13:58;10.70;;;7.33;;
6424;SDS011;12193;42.642;23.384;2023-03-23T09:16:28;13.00;;;8.03;;
6424;SDS011;12193;42.642;23.384;2023-03-23T09:18:58;9.90;;;7.10;;
6424;SDS011;12193;42.642;23.384;2023-03-23T09:21:28;11.73;;;7.90;;
6424;SDS011;12193;42.642;23.384;2023-03-23T09:23:57;11.93;;;6.57;;
6424;SDS011;12193;42.642;23.384;2023-03-23T09:26:30;10.07;;;6.83;;
6424;SDS011;12193;42.642;23.384;2023-03-23T09:29:00;13.30;;;8.10;;
6424;SDS011;12193;42.642;23.384;2023-03-23T09:31:30;14.70;;;8.30;;
6424;SDS011;12193;42.642;23.384;2023-03-23T09:33:59;14.40;;;7.53;;
6424;SDS011;12193;42.642;23.384;2023-03-23T09:36:30;11.87;;;7.40;;
6424;SDS011;12193;42.642;23.384;2023-03-23T09:38:59;11.27;;;7.20;;
6424;SDS011;12193;42.642;23.384;2023-03-23T09:41:38;12.53;;;7.40;;
6424;SDS011;12193;42.642;23.384;2023-03-23T09:44:17;11.40;;;7.17;;
6424;SDS011;12193;42.642;23.384;2023-03-23T09:46:56;9.43;;;6.80;;
6424;SDS011;12193;42.642;23.384;2023-03-23T09:49:32;11.27;;;7.20;;
6424;SDS011;12193;42.642;23.384;2023-03-23T09:52:09;10.40;;;7.33;;
6424;SDS011;12193;42.642;23.384;2023-03-23T09:54:41;10.80;;;7.20;;
6424;SDS011;12193;42.642;23.384;2023-03-23T09:57:15;10.07;;;6.77;;
6424;SDS011;12193;42.642;23.384;2023-03-23T09:59:54;12.50;;;6.93;;
6424;SDS011;12193;42.642;23.384;2023-03-23T10:02:32;11.93;;;7.30;;
6424;SDS011;12193;42.642;23.384;2023-03-23T10:05:22;9.53;;;6.70;;
6424;SDS011;12193;42.642;23.384;2023-03-23T10:07:59;9.27;;;6.70;;
6424;SDS011;12193;42.642;23.384;2023-03-23T10:10:31;9.07;;;6.60;;
6424;SDS011;12193;42.642;23.384;2023-03-23T10:13:12;8.93;;;5.87;;
6424;SDS011;12193;42.642;23.384;2023-03-23T10:15:46;11.63;;;7.00;;
6424;SDS011;12193;42.642;23.384;2023-03-23T10:18:17;9.83;;;6.57;;
6424;SDS011;12193;42.642;23.384;2023-03-23T10:20:52;8.33;;;6.30;;
6424;SDS011;12193;42.642;23.384;2023-03-23T10:23:32;10.20;;;6.77;;
6424;SDS011;12193;42.642;23.384;2023-03-23T10:26:21;9.77;;;6.27;;
6424;SDS011;12193;42.642;23.384;2023-03-23T10:29:11;8.67;;;6.20;;
6424;SDS011;12193;42.642;23.384;2023-03-23T10:31:46;9.03;;;6.03;;
6424;SDS011;12193;42.642;23.384;2023-03-23T10:34:20;9.33;;;6.20;;
6424;SDS011;12193;42.642;23.384;2023-03-23T10:36:58;8.57;;;6.27;;
6424;SDS011;12193;42.642;23.384;2023-03-23T10:39:33;8.63;;;6.17;;
6424;SDS011;12193;42.642;23.384;2023-03-23T10:42:10;8.40;;;6.07;;
6424;SDS011;12193;42.642;23.384;2023-03-23T10:44:43;8.77;;;6.03;;
6424;SDS011;12193;42.642;23.384;2023-03-23T10:47:12;9.67;;;6.57;;
6424;SDS011;12193;42.642;23.384;2023-03-23T10:49:43;9.33;;;6.60;;
6424;SDS011;12193;42.642;23.384;2023-03-23T10:52:27;10.10;;;6.43;;
6424;SDS011;12193;42.642;23.384;2023-03-23T10:55:02;9.40;;;6.53;;
6424;SDS011;12193;42.642;23.384;2023-03-23T10:57:35;9.87;;;6.10;;
6424;SDS011;12193;42.642;23.384;2023-03-23T11:00:16;9.50;;;5.90;;
6424;SDS011;12193;42.642;23.384;2023-03-23T11:02:47;11.33;;;6.20;;
6424;SDS011;12193;42.642;23.384;2023-03-23T11:05:31;8.93;;;6.73;;
6424;SDS011;12193;42.642;23.384;2023-03-23T11:08:04;10.80;;;6.30;;
6424;SDS011;12193;42.642;23.384;2023-03-23T11:10:42;11.30;;;6.40;;
6424;SDS011;12193;42.642;23.384;2023-03-23T11:13:17;9.13;;;6.07;;
6424;SDS011;12193;42.642;23.384;2023-03-23T11:15:50;10.23;;;6.40;;
6424;SDS011;12193;42.642;23.384;2023-03-23T11:18:20;8.90;;;6.20;;
6424;SDS011;12193;42.642;23.384;2023-03-23T11:20:54;8.57;;;6.13;;
6424;SDS011;12193;42.642;23.384;2023-03-23T11:23:27;9.47;;;6.10;;
6424;SDS011;12193;42.642;23.384;2023-03-23T11:25:59;9.87;;;6.20;;
6424;SDS011;12193;42.642;23.384;2023-03-23T11:28:31;9.53;;;6.37;;
6424;SDS011;12193;42.642;23.384;2023-03-23T11:31:06;8.30;;;6.47;;
6424;SDS011;12193;42.642;23.384;2023-03-23T11:33:36;9.90;;;7.00;;
6424;SDS011;12193;42.642;23.384;2023-03-23T11:36:08;9.37;;;6.47;;
6424;SDS011;12193;42.642;23.384;2023-03-23T11:38:38;10.27;;;6.47;;
6424;SDS011;12193;42.642;23.384;2023-03-23T11:41:09;11.17;;;6.47;;
6424;SDS011;12193;42.642;23.384;2023-03-23T11:43:40;8.60;;;6.20;;
6424;SDS011;12193;42.642;23.384;2023-03-23T11:46:22;9.87;;;6.80;;
6424;SDS011;12193;42.642;23.384;2023-03-23T11:49:01;10.33;;;6.40;;
6424;SDS011;12193;42.642;23.384;2023-03-23T11:51:35;10.70;;;6.10;;
6424;SDS011;12193;42.642;23.384;2023-03-23T11:54:09;9.77;;;6.20;;
6424;SDS011;12193;42.642;23.384;2023-03-23T11:56:44;10.40;;;6.53;;
6424;SDS011;12193;42.642;23.384;2023-03-23T11:59:15;10.90;;;6.40;;
